sensor_id;sensor_type;location;lat;lon;timestamp;temperature;humidity
16128;DHT22;8168;49.036;7.690;2023-08-08T00:01:49;13.00;99.90
16128;DHT22;8168;49.036;7.690;2023-08-08T00:04:20;13.00;99.90
16128;DHT22;8168;49.036;7.690;2023-08-08T00:06:50;13.00;99.90
16128;DHT22;8168;49.036;7.690;2023-08-08T00:09:21;13.00;99.90
16128;DHT22;8168;49.036;7.690;2023-08-08T00:11:52;13.00;99.90
16128;DHT22;8168;49.036;7.690;2023-08-08T00:14:23;12.90;99.90
16128;DHT22;8168;49.036;7.690;2023-08-08T00:16:53;12.90;99.90
16128;DHT22;8168;49.036;7.690;2023-08-08T00:19:24;12.90;99.90
16128;DHT22;8168;49.036;7.690;2023-08-08T00:21:54;12.90;99.90
16128;DHT22;8168;49.036;7.690;2023-08-08T00:24:25;12.70;99.90
16128;DHT22;8168;49.036;7.690;2023-08-08T00:26:56;12.70;99.90
16128;DHT22;8168;49.036;7.690;2023-08-08T00:29:26;12.70;99.90
16128;DHT22;8168;49.036;7.690;2023-08-08T00:31:57;12.60;99.90
16128;DHT22;8168;49.036;7.690;2023-08-08T00:34:27;12.60;99.90
16128;DHT22;8168;49.036;7.690;2023-08-08T00:36:58;12.50;99.90
16128;DHT22;8168;49.036;7.690;2023-08-08T00:39:28;12.50;99.90
16128;DHT22;8168;49.036;7.690;2023-08-08T00:41:59;12.50;99.90
16128;DHT22;8168;49.036;7.690;2023-08-08T00:44:30;12.50;99.90
16128;DHT22;8168;49.036;7.690;2023-08-08T00:47:00;12.60;99.90
16128;DHT22;8168;49.036;7.690;2023-08-08T00:49:31;12.60;99.90
16128;DHT22;8168;49.036;7.690;2023-08-08T00:52:02;12.50;99.90
16128;DHT22;8168;49.036;7.690;2023-08-08T00:54:32;12.60;99.90
16128;DHT22;8168;49.036;7.690;2023-08-08T00:57:03;12.50;99.90
16128;DHT22;8168;49.036;7.690;2023-08-08T00:59:34;12.50;99.90
16128;DHT22;8168;49.036;7.690;2023-08-08T01:02:05;12.50;99.90
16128;DHT22;8168;49.036;7.690;2023-08-08T01:04:36;12.50;99.90
16128;DHT22;8168;49.036;7.690;2023-08-08T01:07:30;12.40;99.90
16128;DHT22;8168;49.036;7.690;2023-08-08T01:12:45;12.50;99.90
16128;DHT22;8168;49.036;7.690;2023-08-08T01:15:17;12.50;99.90
16128;DHT22;8168;49.036;7.690;2023-08-08T01:17:48;12.40;99.90
16128;DHT22;8168;49.036;7.690;2023-08-08T01:20:21;12.40;99.90
16128;DHT22;8168;49.036;7.690;2023-08-08T01:25:32;12.40;99.90
16128;DHT22;8168;49.036;7.690;2023-08-08T01:28:03;12.40;99.90
16128;DHT22;8168;49.036;7.690;2023-08-08T01:30:35;12.40;99.90
16128;DHT22;8168;49.036;7.690;2023-08-08T01:33:07;12.40;99.90
16128;DHT22;8168;49.036;7.690;2023-08-08T01:35:39;12.40;99.90
16128;DHT22;8168;49.036;7.690;2023-08-08T01:38:42;12.40;99.90
16128;DHT22;8168;49.036;7.690;2023-08-08T01:41:14;12.40;99.90
16128;DHT22;8168;49.036;7.690;2023-08-08T01:43:46;12.40;99.90
16128;DHT22;8168;49.036;7.690;2023-08-08T01:46:17;12.40;99.90
16128;DHT22;8168;49.036;7.690;2023-08-08T01:48:48;12.40;99.90
16128;DHT22;8168;49.036;7.690;2023-08-08T01:51:18;12.30;99.90
16128;DHT22;8168;49.036;7.690;2023-08-08T01:53:49;12.30;99.90
16128;DHT22;8168;49.036;7.690;2023-08-08T01:56:19;12.30;99.90
16128;DHT22;8168;49.036;7.690;2023-08-08T01:58:50;12.30;99.90
16128;DHT22;8168;49.036;7.690;2023-08-08T02:01:21;12.30;99.90
16128;DHT22;8168;49.036;7.690;2023-08-08T02:03:51;12.30;99.90
16128;DHT22;8168;49.036;7.690;2023-08-08T02:06:22;12.30;99.90
16128;DHT22;8168;49.036;7.690;2023-08-08T02:08:53;12.30;99.90
16128;DHT22;8168;49.036;7.690;2023-08-08T02:11:23;12.30;99.90
16128;DHT22;8168;49.036;7.690;2023-08-08T02:13:54;12.30;99.90
16128;DHT22;8168;49.036;7.690;2023-08-08T02:16:24;12.30;99.90
16128;DHT22;8168;49.036;7.690;2023-08-08T02:18:55;12.20;99.90
16128;DHT22;8168;49.036;7.690;2023-08-08T02:21:26;12.20;99.90
16128;DHT22;8168;49.036;7.690;2023-08-08T02:23:56;12.10;99.90
16128;DHT22;8168;49.036;7.690;2023-08-08T02:26:27;12.00;99.90
16128;DHT22;8168;49.036;7.690;2023-08-08T02:28:58;12.00;99.90
16128;DHT22;8168;49.036;7.690;2023-08-08T02:31:28;12.00;99.90
16128;DHT22;8168;49.036;7.690;2023-08-08T02:33:59;12.00;99.90
16128;DHT22;8168;49.036;7.690;2023-08-08T02:36:29;12.00;99.90
16128;DHT22;8168;49.036;7.690;2023-08-08T02:39:00;11.90;99.90
16128;DHT22;8168;49.036;7.690;2023-08-08T02:41:31;11.90;99.90
16128;DHT22;8168;49.036;7.690;2023-08-08T02:44:01;11.90;99.90
16128;DHT22;8168;49.036;7.690;2023-08-08T02:46:32;11.90;99.90
16128;DHT22;8168;49.036;7.690;2023-08-08T02:49:04;11.90;99.90
16128;DHT22;8168;49.036;7.690;2023-08-08T02:51:34;11.90;99.90
16128;DHT22;8168;49.036;7.690;2023-08-08T02:54:05;11.80;99.90
16128;DHT22;8168;49.036;7.690;2023-08-08T02:56:36;11.80;99.90
16128;DHT22;8168;49.036;7.690;2023-08-08T02:59:06;11.70;99.90
16128;DHT22;8168;49.036;7.690;2023-08-08T03:01:37;11.70;99.90
16128;DHT22;8168;49.036;7.690;2023-08-08T03:04:09;11.70;99.90
16128;DHT22;8168;49.036;7.690;2023-08-08T03:06:40;11.70;99.90
16128;DHT22;8168;49.036;7.690;2023-08-08T03:09:11;11.70;99.90
16128;DHT22;8168;49.036;7.690;2023-08-08T03:11:41;11.60;99.90
16128;DHT22;8168;49.036;7.690;2023-08-08T03:14:12;11.60;99.90
16128;DHT22;8168;49.036;7.690;2023-08-08T03:16:42;11.50;99.90
16128;DHT22;8168;49.036;7.690;2023-08-08T03:19:13;11.50;99.90
16128;DHT22;8168;49.036;7.690;2023-08-08T03:21:44;11.60;99.90
16128;DHT22;8168;49.036;7.690;2023-08-08T03:24:14;11.50;99.90
16128;DHT22;8168;49.036;7.690;2023-08-08T03:26:45;11.50;99.90
16128;DHT22;8168;49.036;7.690;2023-08-08T03:29:15;11.40;99.90
16128;DHT22;8168;49.036;7.690;2023-08-08T03:31:46;11.40;99.90
16128;DHT22;8168;49.036;7.690;2023-08-08T03:34:17;11.40;99.90
16128;DHT22;8168;49.036;7.690;2023-08-08T03:36:47;11.30;99.90
16128;DHT22;8168;49.036;7.690;2023-08-08T03:39:18;11.20;99.90
16128;DHT22;8168;49.036;7.690;2023-08-08T03:41:48;11.20;99.90
16128;DHT22;8168;49.036;7.690;2023-08-08T03:44:19;11.10;99.90
16128;DHT22;8168;49.036;7.690;2023-08-08T03:46:50;11.00;99.90
16128;DHT22;8168;49.036;7.690;2023-08-08T03:49:21;11.00;99.90
16128;DHT22;8168;49.036;7.690;2023-08-08T03:51:52;11.00;99.90
16128;DHT22;8168;49.036;7.690;2023-08-08T03:54:22;11.00;99.90
16128;DHT22;8168;49.036;7.690;2023-08-08T03:56:53;11.00;99.90
16128;DHT22;8168;49.036;7.690;2023-08-08T03:59:23;11.00;99.90
16128;DHT22;8168;49.036;7.690;2023-08-08T04:01:54;11.00;99.90
16128;DHT22;8168;49.036;7.690;2023-08-08T04:04:24;11.00;99.90
16128;DHT22;8168;49.036;7.690;2023-08-08T04:06:55;11.00;99.90
16128;DHT22;8168;49.036;7.690;2023-08-08T04:09:26;10.90;99.90
16128;DHT22;8168;49.036;7.690;2023-08-08T04:11:57;10.90;99.90
16128;DHT22;8168;49.036;7.690;2023-08-08T04:14:27;10.90;99.90
16128;DHT22;8168;49.036;7.690;2023-08-08T04:16:58;10.90;99.90
16128;DHT22;8168;49.036;7.690;2023-08-08T04:19:29;10.90;99.90
16128;DHT22;8168;49.036;7.690;2023-08-08T04:21:59;10.90;99.90
16128;DHT22;8168;49.036;7.690;2023-08-08T04:24:30;10.90;99.90
16128;DHT22;8168;49.036;7.690;2023-08-08T04:27:00;10.80;99.90
16128;DHT22;8168;49.036;7.690;2023-08-08T04:29:31;10.80;99.90
16128;DHT22;8168;49.036;7.690;2023-08-08T04:32:02;10.80;99.90
16128;DHT22;8168;49.036;7.690;2023-08-08T04:34:32;10.70;99.90
16128;DHT22;8168;49.036;7.690;2023-08-08T04:37:03;10.70;99.90
16128;DHT22;8168;49.036;7.690;2023-08-08T04:39:34;10.70;99.90
16128;DHT22;8168;49.036;7.690;2023-08-08T04:42:05;10.70;99.90
16128;DHT22;8168;49.036;7.690;2023-08-08T04:44:35;10.70;99.90
16128;DHT22;8168;49.036;7.690;2023-08-08T04:47:06;10.70;99.90
16128;DHT22;8168;49.036;7.690;2023-08-08T04:49:36;10.70;99.90
16128;DHT22;8168;49.036;7.690;2023-08-08T04:52:07;10.70;99.90
16128;DHT22;8168;49.036;7.690;2023-08-08T04:54:38;10.70;99.90
16128;DHT22;8168;49.036;7.690;2023-08-08T04:57:08;10.60;99.90
16128;DHT22;8168;49.036;7.690;2023-08-08T04:59:39;10.60;99.90
16128;DHT22;8168;49.036;7.690;2023-08-08T05:02:09;10.70;99.90
16128;DHT22;8168;49.036;7.690;2023-08-08T05:04:40;10.60;99.90
16128;DHT22;8168;49.036;7.690;2023-08-08T05:07:11;10.70;99.90
16128;DHT22;8168;49.036;7.690;2023-08-08T05:09:41;10.70;99.90
16128;DHT22;8168;49.036;7.690;2023-08-08T05:12:12;10.70;99.90
16128;DHT22;8168;49.036;7.690;2023-08-08T05:14:42;10.70;99.90
16128;DHT22;8168;49.036;7.690;2023-08-08T05:17:13;10.80;99.90
16128;DHT22;8168;49.036;7.690;2023-08-08T05:19:43;10.80;99.90
16128;DHT22;8168;49.036;7.690;2023-08-08T05:22:14;10.80;99.90
16128;DHT22;8168;49.036;7.690;2023-08-08T05:24:45;10.80;99.90
16128;DHT22;8168;49.036;7.690;2023-08-08T05:27:15;10.80;99.90
16128;DHT22;8168;49.036;7.690;2023-08-08T05:29:46;10.90;99.90
16128;DHT22;8168;49.036;7.690;2023-08-08T05:32:16;10.90;99.90
16128;DHT22;8168;49.036;7.690;2023-08-08T05:34:47;11.00;99.90
16128;DHT22;8168;49.036;7.690;2023-08-08T05:37:19;10.90;99.90
16128;DHT22;8168;49.036;7.690;2023-08-08T05:39:50;11.40;99.90
16128;DHT22;8168;49.036;7.690;2023-08-08T05:42:20;11.10;99.90
16128;DHT22;8168;49.036;7.690;2023-08-08T05:44:51;11.10;99.90
16128;DHT22;8168;49.036;7.690;2023-08-08T05:47:21;11.10;99.90
16128;DHT22;8168;49.036;7.690;2023-08-08T05:49:52;11.20;99.90
16128;DHT22;8168;49.036;7.690;2023-08-08T05:52:23;11.20;99.90
16128;DHT22;8168;49.036;7.690;2023-08-08T05:54:53;11.30;99.90
16128;DHT22;8168;49.036;7.690;2023-08-08T05:57:24;11.40;99.90
16128;DHT22;8168;49.036;7.690;2023-08-08T05:59:55;11.50;99.90
16128;DHT22;8168;49.036;7.690;2023-08-08T06:02:25;11.50;99.90
16128;DHT22;8168;49.036;7.690;2023-08-08T06:04:56;11.60;99.90
16128;DHT22;8168;49.036;7.690;2023-08-08T06:07:27;11.70;99.90
16128;DHT22;8168;49.036;7.690;2023-08-08T06:09:57;11.80;99.90
16128;DHT22;8168;49.036;7.690;2023-08-08T06:12:28;11.90;99.90
16128;DHT22;8168;49.036;7.690;2023-08-08T06:14:58;12.00;99.90
16128;DHT22;8168;49.036;7.690;2023-08-08T06:17:29;12.00;99.90
16128;DHT22;8168;49.036;7.690;2023-08-08T06:20:00;12.10;99.90
16128;DHT22;8168;49.036;7.690;2023-08-08T06:22:30;12.20;99.90
16128;DHT22;8168;49.036;7.690;2023-08-08T06:25:01;12.40;99.90
16128;DHT22;8168;49.036;7.690;2023-08-08T06:27:32;12.50;99.90
16128;DHT22;8168;49.036;7.690;2023-08-08T06:30:03;12.70;99.90
16128;DHT22;8168;49.036;7.690;2023-08-08T06:32:33;13.00;99.90
16128;DHT22;8168;49.036;7.690;2023-08-08T06:35:04;13.20;99.90
16128;DHT22;8168;49.036;7.690;2023-08-08T06:37:36;13.30;99.90
16128;DHT22;8168;49.036;7.690;2023-08-08T06:40:07;13.40;99.90
16128;DHT22;8168;49.036;7.690;2023-08-08T06:42:38;13.50;99.90
16128;DHT22;8168;49.036;7.690;2023-08-08T06:45:09;13.60;99.90
16128;DHT22;8168;49.036;7.690;2023-08-08T06:47:40;13.70;99.90
16128;DHT22;8168;49.036;7.690;2023-08-08T06:50:11;13.80;99.90
16128;DHT22;8168;49.036;7.690;2023-08-08T06:52:42;13.90;99.90
16128;DHT22;8168;49.036;7.690;2023-08-08T06:55:12;14.10;99.90
16128;DHT22;8168;49.036;7.690;2023-08-08T06:57:43;14.20;99.90
16128;DHT22;8168;49.036;7.690;2023-08-08T07:00:14;14.20;99.90
16128;DHT22;8168;49.036;7.690;2023-08-08T07:02:46;14.30;99.90
16128;DHT22;8168;49.036;7.690;2023-08-08T07:05:17;14.40;99.90
16128;DHT22;8168;49.036;7.690;2023-08-08T07:07:49;14.50;99.90
16128;DHT22;8168;49.036;7.690;2023-08-08T07:10:20;14.60;99.90
16128;DHT22;8168;49.036;7.690;2023-08-08T07:12:51;14.70;99.90
16128;DHT22;8168;49.036;7.690;2023-08-08T07:15:21;14.80;99.90
16128;DHT22;8168;49.036;7.690;2023-08-08T07:17:52;14.90;99.90
16128;DHT22;8168;49.036;7.690;2023-08-08T07:20:23;15.00;99.90
16128;DHT22;8168;49.036;7.690;2023-08-08T07:22:54;15.00;99.90
16128;DHT22;8168;49.036;7.690;2023-08-08T07:25:25;15.10;99.90
16128;DHT22;8168;49.036;7.690;2023-08-08T07:27:56;15.20;99.90
16128;DHT22;8168;49.036;7.690;2023-08-08T07:30:26;15.30;99.90
16128;DHT22;8168;49.036;7.690;2023-08-08T07:32:57;15.30;99.90
16128;DHT22;8168;49.036;7.690;2023-08-08T07:35:27;15.40;99.90
16128;DHT22;8168;49.036;7.690;2023-08-08T07:37:58;15.40;99.90
16128;DHT22;8168;49.036;7.690;2023-08-08T07:40:29;15.50;99.90
16128;DHT22;8168;49.036;7.690;2023-08-08T07:42:59;15.60;99.90
16128;DHT22;8168;49.036;7.690;2023-08-08T07:45:30;15.70;99.90
16128;DHT22;8168;49.036;7.690;2023-08-08T07:48:00;15.70;99.90
16128;DHT22;8168;49.036;7.690;2023-08-08T07:50:31;15.80;99.90
16128;DHT22;8168;49.036;7.690;2023-08-08T07:53:02;15.90;99.90
16128;DHT22;8168;49.036;7.690;2023-08-08T07:55:33;16.00;99.90
16128;DHT22;8168;49.036;7.690;2023-08-08T07:58:03;16.10;99.90
16128;DHT22;8168;49.036;7.690;2023-08-08T08:00:34;16.20;99.90
16128;DHT22;8168;49.036;7.690;2023-08-08T08:03:05;16.30;99.90
16128;DHT22;8168;49.036;7.690;2023-08-08T08:05:35;16.30;99.90
16128;DHT22;8168;49.036;7.690;2023-08-08T08:08:07;16.40;99.90
16128;DHT22;8168;49.036;7.690;2023-08-08T08:10:38;16.50;99.90
16128;DHT22;8168;49.036;7.690;2023-08-08T08:13:09;16.60;99.90
16128;DHT22;8168;49.036;7.690;2023-08-08T08:15:41;16.70;99.90
16128;DHT22;8168;49.036;7.690;2023-08-08T08:18:11;16.70;99.90
16128;DHT22;8168;49.036;7.690;2023-08-08T08:20:46;16.80;99.90
16128;DHT22;8168;49.036;7.690;2023-08-08T08:23:17;16.80;99.90
16128;DHT22;8168;49.036;7.690;2023-08-08T08:25:47;16.90;99.90
16128;DHT22;8168;49.036;7.690;2023-08-08T08:28:19;17.00;99.90
16128;DHT22;8168;49.036;7.690;2023-08-08T08:30:49;17.10;99.90
16128;DHT22;8168;49.036;7.690;2023-08-08T08:33:20;17.20;99.90
16128;DHT22;8168;49.036;7.690;2023-08-08T08:35:50;17.20;99.90
16128;DHT22;8168;49.036;7.690;2023-08-08T08:38:21;17.40;99.90
16128;DHT22;8168;49.036;7.690;2023-08-08T08:40:54;17.40;99.90
16128;DHT22;8168;49.036;7.690;2023-08-08T08:43:26;17.50;99.90
16128;DHT22;8168;49.036;7.690;2023-08-08T08:46:00;17.50;99.90
16128;DHT22;8168;49.036;7.690;2023-08-08T08:48:31;17.60;99.90
16128;DHT22;8168;49.036;7.690;2023-08-08T08:51:02;17.60;99.90
16128;DHT22;8168;49.036;7.690;2023-08-08T08:53:33;17.60;99.90
16128;DHT22;8168;49.036;7.690;2023-08-08T08:56:05;17.70;99.90
16128;DHT22;8168;49.036;7.690;2023-08-08T08:58:36;17.80;99.90
16128;DHT22;8168;49.036;7.690;2023-08-08T09:01:07;17.90;99.90
16128;DHT22;8168;49.036;7.690;2023-08-08T09:03:39;17.90;99.90
16128;DHT22;8168;49.036;7.690;2023-08-08T09:06:11;18.00;99.90
16128;DHT22;8168;49.036;7.690;2023-08-08T09:08:42;17.90;99.90
16128;DHT22;8168;49.036;7.690;2023-08-08T09:11:13;18.00;99.90
16128;DHT22;8168;49.036;7.690;2023-08-08T09:13:43;18.00;99.90
16128;DHT22;8168;49.036;7.690;2023-08-08T09:16:14;18.00;99.90
16128;DHT22;8168;49.036;7.690;2023-08-08T09:18:45;18.20;99.90
16128;DHT22;8168;49.036;7.690;2023-08-08T09:21:16;18.20;99.90
16128;DHT22;8168;49.036;7.690;2023-08-08T09:23:47;18.30;99.90
16128;DHT22;8168;49.036;7.690;2023-08-08T09:26:18;18.40;99.90
16128;DHT22;8168;49.036;7.690;2023-08-08T09:28:49;18.50;99.90
16128;DHT22;8168;49.036;7.690;2023-08-08T09:31:20;18.50;99.90
16128;DHT22;8168;49.036;7.690;2023-08-08T09:33:51;18.60;99.90
16128;DHT22;8168;49.036;7.690;2023-08-08T09:36:22;18.60;99.90
16128;DHT22;8168;49.036;7.690;2023-08-08T09:38:54;18.50;99.90
16128;DHT22;8168;49.036;7.690;2023-08-08T09:41:26;18.60;99.90
16128;DHT22;8168;49.036;7.690;2023-08-08T09:43:58;18.70;99.90
16128;DHT22;8168;49.036;7.690;2023-08-08T09:46:30;18.80;99.90
16128;DHT22;8168;49.036;7.690;2023-08-08T09:49:01;18.90;99.90
16128;DHT22;8168;49.036;7.690;2023-08-08T09:51:33;19.00;99.90
16128;DHT22;8168;49.036;7.690;2023-08-08T09:54:04;19.20;99.90
16128;DHT22;8168;49.036;7.690;2023-08-08T09:56:37;19.30;99.90
16128;DHT22;8168;49.036;7.690;2023-08-08T09:59:10;19.30;99.90
16128;DHT22;8168;49.036;7.690;2023-08-08T10:01:41;19.30;99.90
16128;DHT22;8168;49.036;7.690;2023-08-08T10:04:12;19.40;99.90
16128;DHT22;8168;49.036;7.690;2023-08-08T10:06:43;19.40;99.90
16128;DHT22;8168;49.036;7.690;2023-08-08T10:09:14;19.40;99.90
16128;DHT22;8168;49.036;7.690;2023-08-08T10:11:46;19.40;99.90
16128;DHT22;8168;49.036;7.690;2023-08-08T10:14:17;19.40;99.90
16128;DHT22;8168;49.036;7.690;2023-08-08T10:16:48;19.50;99.90
16128;DHT22;8168;49.036;7.690;2023-08-08T10:19:22;19.70;99.90
16128;DHT22;8168;49.036;7.690;2023-08-08T10:22:04;19.70;99.90
16128;DHT22;8168;49.036;7.690;2023-08-08T10:24:36;19.80;99.90
16128;DHT22;8168;49.036;7.690;2023-08-08T10:27:07;19.80;99.90
16128;DHT22;8168;49.036;7.690;2023-08-08T10:29:38;19.80;99.90
16128;DHT22;8168;49.036;7.690;2023-08-08T10:32:09;20.00;99.90
16128;DHT22;8168;49.036;7.690;2023-08-08T10:34:44;20.00;99.90
16128;DHT22;8168;49.036;7.690;2023-08-08T10:37:16;20.10;99.90
16128;DHT22;8168;49.036;7.690;2023-08-08T10:39:57;20.20;99.90
16128;DHT22;8168;49.036;7.690;2023-08-08T10:42:28;20.10;99.90
16128;DHT22;8168;49.036;7.690;2023-08-08T10:45:00;20.10;99.90
16128;DHT22;8168;49.036;7.690;2023-08-08T10:47:35;20.20;99.90
16128;DHT22;8168;49.036;7.690;2023-08-08T10:50:09;20.40;99.90
16128;DHT22;8168;49.036;7.690;2023-08-08T10:52:52;20.60;99.90
16128;DHT22;8168;49.036;7.690;2023-08-08T10:55:25;20.80;99.90
16128;DHT22;8168;49.036;7.690;2023-08-08T10:58:05;21.10;99.90
16128;DHT22;8168;49.036;7.690;2023-08-08T11:00:37;21.20;99.90
16128;DHT22;8168;49.036;7.690;2023-08-08T11:03:10;21.20;99.90
16128;DHT22;8168;49.036;7.690;2023-08-08T11:05:41;21.00;99.90
16128;DHT22;8168;49.036;7.690;2023-08-08T11:08:15;20.90;99.90
16128;DHT22;8168;49.036;7.690;2023-08-08T11:10:52;20.90;99.90
16128;DHT22;8168;49.036;7.690;2023-08-08T11:13:23;20.90;99.90
16128;DHT22;8168;49.036;7.690;2023-08-08T11:15:53;21.00;99.90
16128;DHT22;8168;49.036;7.690;2023-08-08T11:18:24;21.00;99.90
16128;DHT22;8168;49.036;7.690;2023-08-08T11:20:56;21.00;99.90
16128;DHT22;8168;49.036;7.690;2023-08-08T11:23:26;21.00;99.90
16128;DHT22;8168;49.036;7.690;2023-08-08T11:25:57;20.80;99.90
16128;DHT22;8168;49.036;7.690;2023-08-08T11:28:28;20.80;98.50
16128;DHT22;8168;49.036;7.690;2023-08-08T11:30:59;20.80;98.50
16128;DHT22;8168;49.036;7.690;2023-08-08T11:33:30;20.70;99.10
16128;DHT22;8168;49.036;7.690;2023-08-08T11:36:01;20.70;98.40
16128;DHT22;8168;49.036;7.690;2023-08-08T11:38:32;20.60;98.70
16128;DHT22;8168;49.036;7.690;2023-08-08T11:41:03;20.50;99.90
16128;DHT22;8168;49.036;7.690;2023-08-08T11:43:34;20.60;99.30
16128;DHT22;8168;49.036;7.690;2023-08-08T11:46:09;20.70;99.90
16128;DHT22;8168;49.036;7.690;2023-08-08T11:48:40;20.70;98.90
16128;DHT22;8168;49.036;7.690;2023-08-08T11:51:11;20.70;99.90
16128;DHT22;8168;49.036;7.690;2023-08-08T11:53:52;20.90;99.30
16128;DHT22;8168;49.036;7.690;2023-08-08T11:56:23;21.00;98.20
16128;DHT22;8168;49.036;7.690;2023-08-08T11:58:55;20.90;95.70
16128;DHT22;8168;49.036;7.690;2023-08-08T12:01:26;20.90;98.20
16128;DHT22;8168;49.036;7.690;2023-08-08T12:03:57;21.00;98.30
16128;DHT22;8168;49.036;7.690;2023-08-08T12:06:28;21.10;97.30
16128;DHT22;8168;49.036;7.690;2023-08-08T12:09:01;21.10;97.90
16128;DHT22;8168;49.036;7.690;2023-08-08T12:11:36;21.10;98.60
16128;DHT22;8168;49.036;7.690;2023-08-08T12:14:10;21.20;97.30
16128;DHT22;8168;49.036;7.690;2023-08-08T12:16:42;21.10;96.40
16128;DHT22;8168;49.036;7.690;2023-08-08T12:19:14;21.10;96.90
16128;DHT22;8168;49.036;7.690;2023-08-08T12:21:48;21.20;98.20
16128;DHT22;8168;49.036;7.690;2023-08-08T12:24:18;21.30;97.30
16128;DHT22;8168;49.036;7.690;2023-08-08T12:26:49;21.40;96.70
16128;DHT22;8168;49.036;7.690;2023-08-08T12:29:20;21.40;95.80
16128;DHT22;8168;49.036;7.690;2023-08-08T12:31:50;21.50;94.80
16128;DHT22;8168;49.036;7.690;2023-08-08T12:34:21;21.30;95.00
16128;DHT22;8168;49.036;7.690;2023-08-08T12:36:51;21.20;95.10
16128;DHT22;8168;49.036;7.690;2023-08-08T12:39:22;21.10;95.10
16128;DHT22;8168;49.036;7.690;2023-08-08T12:41:53;21.10;95.50
16128;DHT22;8168;49.036;7.690;2023-08-08T12:44:23;20.90;93.70
16128;DHT22;8168;49.036;7.690;2023-08-08T12:46:54;21.00;96.80
16128;DHT22;8168;49.036;7.690;2023-08-08T12:49:24;21.00;95.80
16128;DHT22;8168;49.036;7.690;2023-08-08T12:51:55;21.20;94.40
16128;DHT22;8168;49.036;7.690;2023-08-08T12:54:26;21.30;94.90
16128;DHT22;8168;49.036;7.690;2023-08-08T12:56:56;21.50;94.80
16128;DHT22;8168;49.036;7.690;2023-08-08T12:59:27;21.50;93.20
16128;DHT22;8168;49.036;7.690;2023-08-08T13:01:57;21.40;93.40
16128;DHT22;8168;49.036;7.690;2023-08-08T13:04:28;21.50;93.20
16128;DHT22;8168;49.036;7.690;2023-08-08T13:06:59;21.40;93.40
16128;DHT22;8168;49.036;7.690;2023-08-08T13:09:30;21.50;94.60
16128;DHT22;8168;49.036;7.690;2023-08-08T13:12:01;21.70;95.10
16128;DHT22;8168;49.036;7.690;2023-08-08T13:14:31;21.80;94.30
16128;DHT22;8168;49.036;7.690;2023-08-08T13:17:02;21.80;94.50
16128;DHT22;8168;49.036;7.690;2023-08-08T13:19:33;21.90;92.70
16128;DHT22;8168;49.036;7.690;2023-08-08T13:22:03;21.80;94.20
16128;DHT22;8168;49.036;7.690;2023-08-08T13:24:34;21.80;93.50
16128;DHT22;8168;49.036;7.690;2023-08-08T13:27:05;21.80;92.90
16128;DHT22;8168;49.036;7.690;2023-08-08T13:29:36;21.70;93.40
16128;DHT22;8168;49.036;7.690;2023-08-08T13:32:06;21.70;93.20
16128;DHT22;8168;49.036;7.690;2023-08-08T13:34:37;21.60;93.50
16128;DHT22;8168;49.036;7.690;2023-08-08T13:37:07;21.70;92.80
16128;DHT22;8168;49.036;7.690;2023-08-08T13:39:38;21.60;93.40
16128;DHT22;8168;49.036;7.690;2023-08-08T13:42:09;21.80;93.30
16128;DHT22;8168;49.036;7.690;2023-08-08T13:44:39;21.80;93.60
16128;DHT22;8168;49.036;7.690;2023-08-08T13:47:10;21.70;93.30
16128;DHT22;8168;49.036;7.690;2023-08-08T13:49:41;21.70;93.50
16128;DHT22;8168;49.036;7.690;2023-08-08T13:52:12;21.60;94.00
16128;DHT22;8168;49.036;7.690;2023-08-08T13:54:42;21.60;94.00
16128;DHT22;8168;49.036;7.690;2023-08-08T13:57:13;21.70;93.80
16128;DHT22;8168;49.036;7.690;2023-08-08T13:59:44;21.70;93.50
16128;DHT22;8168;49.036;7.690;2023-08-08T14:02:14;21.80;92.70
16128;DHT22;8168;49.036;7.690;2023-08-08T14:04:47;21.80;92.80
16128;DHT22;8168;49.036;7.690;2023-08-08T14:07:18;21.70;92.70
16128;DHT22;8168;49.036;7.690;2023-08-08T14:09:49;21.50;94.00
16128;DHT22;8168;49.036;7.690;2023-08-08T14:12:20;21.40;94.10
16128;DHT22;8168;49.036;7.690;2023-08-08T14:14:50;21.30;93.90
16128;DHT22;8168;49.036;7.690;2023-08-08T14:17:21;21.30;94.60
16128;DHT22;8168;49.036;7.690;2023-08-08T14:19:52;21.30;94.60
16128;DHT22;8168;49.036;7.690;2023-08-08T14:22:23;21.30;94.90
16128;DHT22;8168;49.036;7.690;2023-08-08T14:24:53;21.30;94.90
16128;DHT22;8168;49.036;7.690;2023-08-08T14:27:24;21.30;94.90
16128;DHT22;8168;49.036;7.690;2023-08-08T14:29:54;21.40;94.80
16128;DHT22;8168;49.036;7.690;2023-08-08T14:32:25;21.40;94.10
16128;DHT22;8168;49.036;7.690;2023-08-08T14:34:56;21.40;94.20
16128;DHT22;8168;49.036;7.690;2023-08-08T14:37:27;21.40;94.30
16128;DHT22;8168;49.036;7.690;2023-08-08T14:39:57;21.40;94.60
16128;DHT22;8168;49.036;7.690;2023-08-08T14:42:28;21.40;95.00
16128;DHT22;8168;49.036;7.690;2023-08-08T14:44:59;21.40;95.00
16128;DHT22;8168;49.036;7.690;2023-08-08T14:47:29;21.40;94.90
16128;DHT22;8168;49.036;7.690;2023-08-08T14:50:00;21.30;95.10
16128;DHT22;8168;49.036;7.690;2023-08-08T14:52:30;21.20;94.60
16128;DHT22;8168;49.036;7.690;2023-08-08T14:55:01;21.20;94.30
16128;DHT22;8168;49.036;7.690;2023-08-08T14:57:32;21.20;94.90
16128;DHT22;8168;49.036;7.690;2023-08-08T15:00:04;21.20;95.30
16128;DHT22;8168;49.036;7.690;2023-08-08T15:02:36;21.20;95.10
16128;DHT22;8168;49.036;7.690;2023-08-08T15:05:07;21.20;95.50
16128;DHT22;8168;49.036;7.690;2023-08-08T15:07:38;21.30;95.60
16128;DHT22;8168;49.036;7.690;2023-08-08T15:10:09;21.40;95.20
16128;DHT22;8168;49.036;7.690;2023-08-08T15:12:40;21.40;95.60
16128;DHT22;8168;49.036;7.690;2023-08-08T15:15:11;21.50;96.40
16128;DHT22;8168;49.036;7.690;2023-08-08T15:17:42;21.60;95.90
16128;DHT22;8168;49.036;7.690;2023-08-08T15:20:13;21.50;95.60
16128;DHT22;8168;49.036;7.690;2023-08-08T15:22:43;21.50;95.40
16128;DHT22;8168;49.036;7.690;2023-08-08T15:25:14;21.50;95.80
16128;DHT22;8168;49.036;7.690;2023-08-08T15:27:45;21.50;96.40
16128;DHT22;8168;49.036;7.690;2023-08-08T15:30:15;21.40;95.50
16128;DHT22;8168;49.036;7.690;2023-08-08T15:32:46;21.40;95.60
16128;DHT22;8168;49.036;7.690;2023-08-08T15:35:17;21.40;95.60
16128;DHT22;8168;49.036;7.690;2023-08-08T15:37:47;21.40;96.00
16128;DHT22;8168;49.036;7.690;2023-08-08T15:40:18;21.40;96.40
16128;DHT22;8168;49.036;7.690;2023-08-08T15:42:48;21.40;96.00
16128;DHT22;8168;49.036;7.690;2023-08-08T15:45:19;21.40;96.60
16128;DHT22;8168;49.036;7.690;2023-08-08T15:47:49;21.40;96.80
16128;DHT22;8168;49.036;7.690;2023-08-08T15:50:22;21.40;96.70
16128;DHT22;8168;49.036;7.690;2023-08-08T15:52:53;21.30;96.40
16128;DHT22;8168;49.036;7.690;2023-08-08T15:55:26;21.10;96.20
16128;DHT22;8168;49.036;7.690;2023-08-08T15:57:57;21.20;96.90
16128;DHT22;8168;49.036;7.690;2023-08-08T16:00:27;21.20;97.50
16128;DHT22;8168;49.036;7.690;2023-08-08T16:02:58;21.40;97.60
16128;DHT22;8168;49.036;7.690;2023-08-08T16:05:29;21.40;97.30
16128;DHT22;8168;49.036;7.690;2023-08-08T16:08:00;21.50;96.80
16128;DHT22;8168;49.036;7.690;2023-08-08T16:10:32;21.40;97.00
16128;DHT22;8168;49.036;7.690;2023-08-08T16:13:03;21.40;96.90
16128;DHT22;8168;49.036;7.690;2023-08-08T16:15:33;21.30;97.30